createdAt,value
2022-08-18T00:01:16.371Z,67.09635536492216
2022-08-18T00:04:34.717Z,67.28466171909115
2022-08-18T00:07:19.335Z,67.24276244707475
2022-08-18T00:11:22.683Z,67.31981976916819
2022-08-18T00:14:21.400Z,67.16414616273774
2022-08-18T00:17:17.639Z,67.27164277016003
2022-08-18T00:21:15.984Z,68.50555747191551
2022-08-18T00:24:16.172Z,68.86822472656117
2022-08-18T00:27:19.211Z,68.83629023849534
2022-08-18T00:31:16.314Z,69.20820757062015
2022-08-18T00:34:16.855Z,68.96900388831743
2022-08-18T00:37:16.890Z,68.94815065712059
2022-08-18T00:41:15.771Z,69.7062240202835
2022-08-18T00:44:18.075Z,70.10937867232298
2022-08-18T00:47:15.923Z,70.32453120843557
2022-08-18T00:51:22.596Z,71.0269658931619
2022-08-18T00:54:20.640Z,70.85073898127484
2022-08-18T00:57:18.544Z,70.30801807170155
2022-08-18T01:01:18.730Z,71.08921322658244
2022-08-18T01:04:21.041Z,70.25062844381
2022-08-18T01:07:21.148Z,70.66881013553855
2022-08-18T01:11:16.343Z,70.99238277981495
2022-08-18T01:14:18.725Z,70.67132225934253
2022-08-18T01:22:28.052Z,71.06260967576405
2022-08-18T01:24:21.737Z,71.07098831789277
2022-08-18T01:27:18.333Z,69.97896532155066
2022-08-18T01:41:28.543Z,71.11598710031525
2022-08-18T01:44:16.143Z,71.75028757846411
2022-08-18T01:47:18.555Z,71.35821573755209
2022-08-18T01:51:17.053Z,71.9554519299388
2022-08-18T01:54:16.869Z,71.99110474896085
2022-08-18T01:57:19.249Z,71.943180558749
2022-08-18T02:01:15.922Z,70.06668053768598
2022-08-18T02:04:34.327Z,70.21423261932863
2022-08-18T02:07:16.398Z,70.49896009875854
2022-08-18T02:11:16.025Z,71.62645288066182
2022-08-18T02:14:16.267Z,72.17387205053383
2022-08-18T02:17:16.345Z,71.94356553607659
2022-08-18T02:21:19.477Z,71.68658671114619
2022-08-18T02:24:17.355Z,72.41486022214049
2022-08-18T02:27:16.853Z,70.76367919038006
2022-08-18T02:31:18.283Z,69.04293941773832
2022-08-18T02:34:17.146Z,69.12190165210737
2022-08-18T02:37:16.386Z,68.7442236645498
2022-08-18T02:41:16.152Z,68.8313305039674
2022-08-18T02:44:16.750Z,69.34958965350462
2022-08-18T02:47:18.667Z,69.63239408742025
2022-08-18T02:51:16.536Z,69.01933558292272
2022-08-18T02:54:16.852Z,68.43451209708086
2022-08-18T02:57:16.398Z,68.18541589503833
2022-08-18T03:01:16.395Z,68.26930997066636
2022-08-18T03:04:24.034Z,68.23036032706668
2022-08-18T03:07:17.712Z,67.45614646197633
2022-08-18T03:11:19.026Z,66.48491698491037
2022-08-18T03:14:16.792Z,66.07166727245763
2022-08-18T03:17:16.760Z,65.32621393362325
2022-08-18T03:21:19.674Z,64.66005657088118
2022-08-18T03:24:22.334Z,64.0655318347371
2022-08-18T03:27:16.689Z,63.400207015380914
2022-08-18T03:31:17.583Z,62.49215516235815
2022-08-18T03:34:17.324Z,61.508033541897944
2022-08-18T03:37:16.339Z,60.60912586283163
2022-08-18T03:41:18.419Z,57.489770209781206
2022-08-18T03:44:16.287Z,58.67413833345304
2022-08-18T03:47:17.502Z,58.69994667804342
2022-08-18T03:51:18.920Z,58.618960458705686
2022-08-18T03:54:17.413Z,60.44880679811442
2022-08-18T03:57:16.117Z,60.37790969765304
2022-08-18T04:01:26.318Z,59.532631095414644
2022-08-18T04:04:20.029Z,60.071173760138954
2022-08-18T04:07:17.660Z,60.881752050568565
2022-08-18T04:11:15.564Z,60.35644576954087
2022-08-18T04:14:18.499Z,60.442014951875
2022-08-18T04:17:16.806Z,60.688992822793985
2022-08-18T04:21:16.961Z,61.27233681400339
2022-08-18T04:24:17.696Z,62.390400426018665
2022-08-18T04:27:17.506Z,62.703986794058075
2022-08-18T04:31:16.161Z,62.38912956864046
2022-08-18T04:34:18.221Z,62.01330161153607
2022-08-18T04:37:17.133Z,62.40094319291096
2022-08-18T04:41:16.654Z,61.93829133503806
2022-08-18T04:44:19.519Z,61.651789882560124
2022-08-18T04:47:16.975Z,61.098197558557764
2022-08-18T04:52:34.184Z,60.483227607119694
2022-08-18T04:54:16.338Z,59.90796467670637
2022-08-18T04:57:18.384Z,59.52732538039752
2022-08-18T05:01:18.658Z,58.08994348556684
2022-08-18T05:04:17.267Z,56.317276513661966
2022-08-18T05:07:19.269Z,53.64139386483532
2022-08-18T05:11:16.267Z,49.71267260600541
2022-08-18T05:14:18.188Z,47.88941463996779
2022-08-18T05:17:16.705Z,47.84387536404765
2022-08-18T05:21:16.216Z,49.23394537694981
2022-08-18T05:24:17.084Z,50.512945246115954
2022-08-18T05:27:16.195Z,50.094897661451675
2022-08-18T05:31:18.493Z,47.897860111387715
2022-08-18T05:34:18.285Z,45.13639412465494
2022-08-18T05:37:27.033Z,45.69796769042935
2022-08-18T05:41:24.808Z,47.03683368233894
2022-08-18T05:44:24.065Z,47.93647530067558
2022-08-18T05:47:21.752Z,47.119542422872
2022-08-18T05:51:20.164Z,46.085792270326984
2022-08-18T06:01:21.865Z,40.70394608054552
2022-08-18T06:04:25.133Z,39.67267032167861
2022-08-18T06:07:25.969Z,38.98650943298265
2022-08-18T06:11:35.932Z,40.11699806521505
2022-08-18T06:14:40.378Z,39.442901788285525
2022-08-18T06:21:30.217Z,37.729201956815416
2022-08-18T06:41:43.177Z,36.8792470459652
2022-08-18T06:44:22.097Z,37.05507010179576
2022-08-18T06:47:36.850Z,37.60661833917696
2022-08-18T06:51:19.843Z,38.75170077059372
2022-08-18T06:54:41.508Z,37.75779778617407
2022-08-18T06:57:28.727Z,37.8277140383419
2022-08-18T07:01:17.205Z,39.58504866711949
2022-08-18T07:05:24.841Z,38.54430660171314
2022-08-18T07:07:28.913Z,38.30271070299802
2022-08-18T07:11:20.767Z,38.719569999172315
2022-08-18T07:14:22.623Z,39.69563172650664
2022-08-18T07:17:21.399Z,39.812967286977376
2022-08-18T07:21:29.336Z,38.518486009790436
2022-08-18T07:24:25.589Z,39.853561333531154
2022-08-18T07:27:19.732Z,39.60022574444615
2022-08-18T07:31:24.453Z,38.358084833170395
2022-08-18T07:34:19.980Z,39.91752754179422
2022-08-18T07:37:22.901Z,41.28220686999814
2022-08-18T07:41:20.821Z,41.41741272310834
2022-08-18T07:44:26.634Z,40.81118755888056
2022-08-18T07:47:20.890Z,42.68837643571208
2022-08-18T07:51:22.512Z,38.589476330819345
2022-08-18T07:54:48.174Z,40.08023554905957
2022-08-18T07:57:25.433Z,39.1077300260467
2022-08-18T08:01:26.887Z,36.558884086314634
2022-08-18T08:04:39.178Z,35.29461516424226
2022-08-18T08:07:24.363Z,32.47556438953785
2022-08-18T08:11:44.605Z,33.648439218770164
2022-08-18T08:21:19.446Z,32.210838593401434
2022-08-18T08:24:19.932Z,30.568702012307654
2022-08-18T08:27:23.699Z,29.547205197435794
2022-08-18T08:31:36.669Z,29.115360255922834
2022-08-18T08:34:23.064Z,30.860922247657978
2022-08-18T08:37:23.491Z,32.35198731808526
2022-08-18T08:41:21.635Z,30.138100446262712
2022-08-18T08:44:21.301Z,31.93828329827569
2022-08-18T08:47:22.923Z,30.52471069940302
2022-08-18T08:51:30.136Z,29.998776313822
2022-08-18T08:54:20.814Z,29.28335412509947
2022-08-18T08:57:18.043Z,28.767395978986617
2022-08-18T09:01:25.693Z,31.71580999838148
2022-08-18T09:04:27.618Z,29.753846593784584
2022-08-18T09:07:30.273Z,27.96494698225672
2022-08-18T09:21:29.036Z,26.370738486523177
2022-08-18T09:24:23.643Z,26.83144512670062
2022-08-18T09:27:39.885Z,27.07287678016396
2022-08-18T09:41:39.906Z,26.66729397930321
2022-08-18T09:45:01.762Z,26.942663873044808
2022-08-18T09:47:57.850Z,27.359708480843363
2022-08-18T09:51:31.459Z,27.897396993200243
2022-08-18T09:54:21.136Z,28.552277029170785
2022-08-18T10:11:29.177Z,29.624312571644552
2022-08-18T10:14:37.275Z,30.71579549891304
2022-08-18T10:17:34.472Z,32.244718161182035
2022-08-18T10:21:20.950Z,32.48395588130744
2022-08-18T10:24:35.063Z,33.536368342548236
2022-08-18T10:27:44.999Z,27.6181982617798
2022-08-18T10:31:15.756Z,30.015772440515317
2022-08-18T10:34:37.018Z,31.28189450543884
2022-08-18T10:37:20.311Z,31.576240493930115
2022-08-18T10:41:24.476Z,29.994366026439952
2022-08-18T10:44:29.374Z,30.75487111912783
2022-08-18T10:47:24.934Z,33.4492565587329
2022-08-18T10:51:27.516Z,34.59689614826878
2022-08-18T10:54:25.784Z,34.298428616347564
2022-08-18T10:57:28.255Z,32.94678116675255
2022-08-18T11:01:30.883Z,34.08208404296486
2022-08-18T11:04:34.688Z,34.10973943714603
2022-08-18T11:07:20.983Z,33.15289422751561
2022-08-18T11:11:34.785Z,33.2465602492371
2022-08-18T11:14:34.352Z,34.060747071980515
2022-08-18T11:17:27.054Z,32.763204022558405
2022-08-18T11:21:31.719Z,30.89174588103102
2022-08-18T11:31:16.416Z,29.699560144574193
2022-08-18T11:41:23.472Z,28.920168512970235
2022-08-18T11:51:23.501Z,28.74415450767584
2022-08-18T12:01:51.311Z,29.180135610734375
2022-08-18T12:11:26.636Z,29.314338708511446
2022-08-18T12:21:16.181Z,30.01393751846733
2022-08-18T12:24:26.402Z,30.327696996519702
2022-08-18T12:27:21.463Z,30.450555277662026
2022-08-18T12:31:17.069Z,30.504160367649675
2022-08-18T12:41:22.944Z,32.932397418637485
2022-08-18T12:51:16.562Z,34.01057669863444
2022-08-18T13:01:17.488Z,35.198989454192414
2022-08-18T13:11:38.877Z,35.90951947100955
2022-08-18T13:31:58.835Z,36.23993238211846
2022-08-18T13:34:56.651Z,36.8404846728826
2022-08-18T13:37:56.876Z,35.98564863922291
2022-08-18T13:41:16.918Z,34.94048447199893
2022-08-18T13:44:19.965Z,35.10707015096089
2022-08-18T13:47:16.275Z,34.85195228094015
2022-08-18T13:51:21.676Z,35.02566277657607
2022-08-18T13:54:30.974Z,36.43395638165309
2022-08-18T13:57:16.385Z,36.78555145939791
2022-08-18T14:01:42.558Z,37.59223416910013
2022-08-18T14:04:20.227Z,36.73139079824681
2022-08-18T14:07:19.059Z,36.84500894878446
2022-08-18T14:11:16.744Z,38.796996237503066
2022-08-18T14:14:17.355Z,40.380564105988086
2022-08-18T14:17:16.350Z,40.854757502409
2022-08-18T14:31:20.580Z,40.35531422395022
2022-08-18T14:34:21.784Z,39.10932066358775
2022-08-18T14:37:16.540Z,39.216000832446575
2022-08-18T14:41:16.738Z,36.14677739619361
2022-08-18T14:44:17.797Z,35.803757491178764
2022-08-18T14:47:24.398Z,35.833399348571994
2022-08-18T14:51:15.994Z,35.475750263549784
2022-08-18T14:54:17.833Z,36.230615147735314
2022-08-18T14:57:16.877Z,36.135543293746714
2022-08-18T15:01:17.621Z,35.612660098633796
2022-08-18T15:04:19.442Z,35.101359769130916
2022-08-18T15:07:18.234Z,34.54344709483869
2022-08-18T15:11:17.437Z,34.7034968828721
2022-08-18T15:14:17.858Z,35.036873509671466
2022-08-18T15:17:16.659Z,36.610520476702014
2022-08-18T15:31:16.762Z,38.81171821249066
2022-08-18T15:34:20.517Z,37.00705147301901
2022-08-18T15:37:19.426Z,34.70313610526701
2022-08-18T15:41:29.405Z,34.27081683202218
2022-08-18T15:44:19.247Z,34.17714790864668
2022-08-18T16:21:39.820Z,36.700989176159894
2022-08-18T16:24:36.509Z,37.0931188227599
2022-08-18T16:27:38.250Z,37.56203308159471
2022-08-18T16:31:16.041Z,37.698907498917464
2022-08-18T16:34:16.296Z,38.87261420352619
2022-08-18T16:41:16.569Z,38.43486544529867
2022-08-18T16:44:17.232Z,38.68979345647184
2022-08-18T16:47:17.542Z,39.53736507990808
2022-08-18T16:51:19.650Z,39.8752626162384
2022-08-18T16:54:16.330Z,39.97052337895847
2022-08-18T17:11:18.486Z,38.95381125514253
2022-08-18T17:14:16.645Z,39.04275975468294
2022-08-18T17:17:18.128Z,39.53448705075268
2022-08-18T17:21:18.222Z,40.498458603153495
2022-08-18T17:24:16.031Z,40.72358384923267
2022-08-18T17:27:26.504Z,41.10181493845711
2022-08-18T17:31:16.519Z,41.29681990244546
2022-08-18T17:34:19.512Z,41.840449023033095
2022-08-18T17:37:17.848Z,42.442722419418715
2022-08-18T17:41:17.485Z,42.75559477195287
2022-08-18T17:44:21.054Z,42.31873535620889
2022-08-18T17:51:44.542Z,42.761242176860826
2022-08-18T17:54:40.778Z,42.49555877591028
2022-08-18T17:57:44.796Z,42.772719917204846
2022-08-18T18:01:16.389Z,42.583952951055856
2022-08-18T18:04:16.504Z,42.67244976954667
2022-08-18T18:07:23.742Z,41.87614713323547
2022-08-18T18:11:15.497Z,41.71100777072406
2022-08-18T18:14:24.610Z,41.71103395331644
2022-08-18T18:17:18.915Z,42.13566947466785
2022-08-18T18:21:20.679Z,43.45592058671387
2022-08-18T18:24:15.918Z,44.52236777974863
2022-08-18T18:27:29.215Z,44.675101243805024
2022-08-18T18:31:20.404Z,44.26843489763478
2022-08-18T18:34:23.552Z,44.173909961436834
2022-08-18T18:37:24.222Z,43.86751043781795
2022-08-18T18:41:21.658Z,44.52635646448624
2022-08-18T18:44:25.942Z,45.09692171993712
2022-08-18T18:47:32.083Z,46.0311489917184
2022-08-18T18:51:33.704Z,45.39590395779593
2022-08-18T18:54:34.257Z,45.25461592407295
2022-08-18T18:57:23.521Z,45.4824891910504
2022-08-18T19:01:31.231Z,45.37126797899652
2022-08-18T19:04:23.412Z,45.46448655564881
2022-08-18T19:07:23.276Z,45.2416662030043
2022-08-18T19:11:23.618Z,45.2593165719011
2022-08-18T19:14:21.421Z,45.49351475997445
2022-08-18T19:17:21.696Z,45.781164788135506
2022-08-18T19:22:04.108Z,45.451976163302895
2022-08-18T19:24:20.560Z,45.580373955533254
2022-08-18T19:41:31.296Z,45.532055985456395
2022-08-18T19:51:26.158Z,46.964287037375925
2022-08-18T19:54:39.107Z,47.897895984311425
2022-08-18T19:57:32.948Z,48.51307037492872
2022-08-18T20:01:24.866Z,47.89046266856705
2022-08-18T20:04:34.494Z,47.44419278887659
2022-08-18T20:07:37.847Z,47.70088516603977
2022-08-18T20:21:59.049Z,47.359684688715305
2022-08-18T20:24:44.133Z,47.40625824238751
2022-08-18T20:27:36.199Z,47.63367801042134
2022-08-18T20:31:15.991Z,47.675237287377314
2022-08-18T20:34:19.534Z,47.76834473656221
2022-08-18T20:37:24.288Z,47.18757240430518
2022-08-18T20:41:40.299Z,46.88787592975361
2022-08-18T20:51:21.305Z,46.47148767292874
2022-08-18T20:54:29.218Z,45.53263299603943
2022-08-18T20:57:18.634Z,43.70778074727529
2022-08-18T21:01:16.625Z,44.16038437155626
2022-08-18T21:04:15.980Z,44.86421571394536
2022-08-18T21:07:36.511Z,45.06345164080202
2022-08-18T21:11:29.674Z,45.56822599720063
2022-08-18T21:14:24.437Z,46.066935138983
2022-08-18T21:17:17.408Z,46.27177277305224
2022-08-18T21:21:26.903Z,45.87336257975988
2022-08-18T21:24:26.875Z,46.01448005861227
2022-08-18T21:27:23.557Z,46.4778970541405
2022-08-18T21:31:42.510Z,46.75366492032944
2022-08-18T21:41:19.093Z,48.69980859431234
2022-08-18T21:44:21.807Z,48.69411665275537
2022-08-18T21:47:20.215Z,47.632319383785216
2022-08-18T21:51:18.759Z,47.46867596802663
2022-08-18T21:54:19.242Z,47.41083540738683
2022-08-18T21:57:19.917Z,48.23123419690005
2022-08-18T22:01:21.823Z,48.302195210976855
2022-08-18T22:04:25.176Z,48.46597808367988
2022-08-18T22:07:34.424Z,48.98694703985164
2022-08-18T22:21:31.370Z,52.229404295872385
2022-08-18T22:24:35.164Z,52.784508907728465
2022-08-18T22:27:20.244Z,50.75701686753158
2022-08-18T22:31:20.851Z,51.260403580066814
2022-08-18T22:34:27.031Z,51.91510992584844
2022-08-18T22:37:20.971Z,50.88270080119968
2022-08-18T22:41:16.070Z,49.072092457206196
2022-08-18T22:44:16.290Z,50.20775589117113
2022-08-18T22:47:15.969Z,51.87684582235214
2022-08-18T22:51:17.356Z,54.46198758938575
2022-08-18T22:54:16.558Z,57.5298190008783
2022-08-18T22:57:17.791Z,60.93233491599746
2022-08-18T23:01:16.672Z,62.8066593293217
2022-08-18T23:04:19.644Z,64.4654972279215
2022-08-18T23:07:22.333Z,65.48936854985884
2022-08-18T23:11:15.827Z,66.84610634042562
2022-08-18T23:14:16.628Z,68.48596183561357
2022-08-18T23:17:16.848Z,68.42856530870627
2022-08-18T23:21:34.716Z,69.63206176768624
2022-08-18T23:24:18.920Z,70.44362313720158
2022-08-18T23:27:16.826Z,71.05028779513684
2022-08-18T23:31:16.559Z,71.61882399276494
2022-08-18T23:34:20.638Z,71.48767582127046
2022-08-18T23:37:16.465Z,70.32086120442058
2022-08-18T23:41:16.601Z,69.25282060796404
2022-08-18T23:44:16.155Z,69.88010300278657
2022-08-18T23:47:16.621Z,71.49052812676109
2022-08-18T23:51:27.932Z,70.77121759828135
2022-08-18T23:54:20.973Z,71.72715268209659
2022-08-18T23:57:16.551Z,72.60551686644068
